Leal, North Dakota
Current Conditions -  °F | °C
As of 10:55 AM on Wednesday 22 Oct 2014 (Local Time) from KBAC Reporting Station
Clear Clear  
Wind Chill: 59°   Ceiling: Unl
Heat Index: 59°   Visibility: 10mi
Dew Point: 46°   Wind: 18mph
Humidity: 63%   Direction: 190°S
Pressure: 29.82"   Gusts: 23mph
Location:  47.0662°N, 98.2132°W
Report Text: KBAC 221555Z AUTO 19016G20KT 10SM CLR 15/08 A2982 RMK AO2
Loading
Personal Weather Stations






























Interactive Weather Map
Tropical Storm Tracking
New forecast layout! Learn more

10-Day Weather Forecast

Advertisements
Track Severe Weather on mobile